Time;durP1;ratioP1;P1;durP2;ratioP2;P2;SDS_P1;SDS_P2;PMS_P1;PMS_P2;Temp;Humidity;BMP_temperature;BMP_pressure;BME280_temperature;BME280_humidity;BME280_pressure;Samples;Min_cycle;Max_cycle;Signal;HPM_P1;HPM_P2
2021/05/27 00:00:22;;;;;;;;;;;18.70;50.10;;;;;;461211;258;2204;-44
2021/05/27 00:02:24;;;;;;;;;;;18.70;50.20;;;;;;461191;258;1105;-44
2021/05/27 00:04:25;;;;;;;;;;;18.70;50.20;;;;;;461166;258;1138;-44
2021/05/27 00:06:26;;;;;;;;;;;18.70;50.30;;;;;;461446;258;1075;-44
2021/05/27 00:08:28;;;;;;;;;;;18.70;50.30;;;;;;461266;258;1211;-44
2021/05/27 00:10:29;;;;;;;;;;;18.70;50.30;;;;;;461510;258;1065;-44
2021/05/27 00:12:30;;;;;;;;;;;18.60;50.30;;;;;;461060;258;1088;-44
2021/05/27 00:14:31;;;;;;;;;;;18.60;50.30;;;;;;461525;258;1235;-44
2021/05/27 00:16:33;;;;;;;;;;;18.60;50.40;;;;;;461025;258;1095;-44
2021/05/27 00:18:34;;;;;;;;;;;18.60;50.40;;;;;;461163;258;1072;-44
2021/05/27 00:20:35;;;;;;;;;;;18.60;50.40;;;;;;461445;258;2144;-44
2021/05/27 00:22:37;;;;;;;;;;;18.60;50.40;;;;;;461170;258;1246;-44
2021/05/27 00:24:38;;;;;;;;;;;18.50;50.40;;;;;;461580;258;1103;-44
2021/05/27 00:26:40;;;;;;;;;;;18.50;50.50;;;;;;461105;258;1208;-44
2021/05/27 00:28:41;;;;;;;;;;;18.50;50.50;;;;;;461561;258;1946;-44
2021/05/27 00:30:42;;;;;;;;;;;18.50;50.60;;;;;;461252;258;1175;-44
2021/05/27 00:32:43;;;;;;;;;;;18.40;50.60;;;;;;461149;258;1368;-44
2021/05/27 00:34:45;;;;;;;;;;;18.40;50.60;;;;;;461352;258;1115;-44
2021/05/27 00:36:46;;;;;;;;;;;18.40;50.70;;;;;;461090;258;1597;-45
2021/05/27 00:38:47;;;;;;;;;;;18.70;50.10;;;;;;461197;258;1163;-44
2021/05/27 00:40:48;;;;;;;;;;;19.20;48.90;;;;;;461224;258;2207;-45
2021/05/27 00:42:50;;;;;;;;;;;19.60;47.80;;;;;;461343;258;1084;-44
2021/05/27 00:44:51;;;;;;;;;;;19.80;47.10;;;;;;461072;258;1176;-44
2021/05/27 00:46:52;;;;;;;;;;;20.00;46.60;;;;;;461198;258;1157;-45
2021/05/27 00:48:58;;;;;;;;;;;20.20;46.20;;;;;;461145;258;1119;-44
2021/05/27 00:50:58;;;;;;;;;;;20.30;45.90;;;;;;461101;258;1358;-44
2021/05/27 00:53:00;;;;;;;;;;;20.40;45.70;;;;;;461081;258;1220;-45
2021/05/27 00:55:01;;;;;;;;;;;20.50;45.40;;;;;;461317;258;1161;-45
2021/05/27 00:57:02;;;;;;;;;;;20.60;45.20;;;;;;461085;258;1187;-44
2021/05/27 00:59:03;;;;;;;;;;;20.70;45.10;;;;;;461503;258;2145;-45
2021/05/27 01:01:05;;;;;;;;;;;20.70;45.00;;;;;;461551;258;1225;-44
2021/05/27 01:03:06;;;;;;;;;;;20.80;44.90;;;;;;461042;258;1207;-44
2021/05/27 01:05:08;;;;;;;;;;;20.80;44.80;;;;;;461381;258;1107;-45
2021/05/27 01:07:09;;;;;;;;;;;20.90;44.70;;;;;;461101;258;1349;-44
2021/05/27 01:09:10;;;;;;;;;;;20.90;44.50;;;;;;461163;258;1179;-45
2021/05/27 01:11:12;;;;;;;;;;;20.90;44.50;;;;;;461064;258;1132;-45
2021/05/27 01:13:13;;;;;;;;;;;20.90;44.40;;;;;;461563;258;1199;-44
2021/05/27 01:15:29;;;;;;;;;;;21.00;44.30;;;;;;461586;258;1064;-45
2021/05/27 01:17:28;;;;;;;;;;;21.00;44.20;;;;;;461062;258;2001;-45
2021/05/27 01:19:29;;;;;;;;;;;21.10;44.20;;;;;;461193;258;2184;-44
2021/05/27 01:21:30;;;;;;;;;;;21.10;44.10;;;;;;461492;258;1188;-45
2021/05/27 01:23:31;;;;;;;;;;;21.10;44.10;;;;;;461418;258;1188;-44
2021/05/27 01:25:33;;;;;;;;;;;21.20;44.10;;;;;;461377;258;1070;-45
2021/05/27 01:27:34;;;;;;;;;;;21.20;44.00;;;;;;461462;258;1346;-45
2021/05/27 01:29:36;;;;;;;;;;;21.20;43.90;;;;;;461502;258;1119;-44
2021/05/27 01:31:37;;;;;;;;;;;21.20;43.90;;;;;;461066;258;1175;-45
2021/05/27 01:33:38;;;;;;;;;;;21.20;43.80;;;;;;461088;258;1154;-45
2021/05/27 01:35:39;;;;;;;;;;;21.30;43.80;;;;;;461201;258;1238;-44
2021/05/27 01:37:41;;;;;;;;;;;21.30;43.80;;;;;;461317;258;1330;-44
2021/05/27 01:39:42;;;;;;;;;;;21.30;43.70;;;;;;461185;258;2260;-45
2021/05/27 01:41:43;;;;;;;;;;;21.30;43.70;;;;;;461065;258;1110;-45
2021/05/27 01:43:45;;;;;;;;;;;21.40;43.60;;;;;;461594;258;1006;-44
2021/05/27 01:45:46;;;;;;;;;;;21.50;43.60;;;;;;461254;258;1050;-44
2021/05/27 01:47:47;;;;;;;;;;;21.40;43.50;;;;;;461187;258;1137;-45
2021/05/27 01:49:48;;;;;;;;;;;21.40;43.50;;;;;;461606;258;1086;-45
2021/05/27 01:51:50;;;;;;;;;;;21.50;43.50;;;;;;461080;258;1297;-45
2021/05/27 01:53:51;;;;;;;;;;;21.50;43.50;;;;;;461465;258;1168;-45
2021/05/27 01:55:52;;;;;;;;;;;21.50;43.50;;;;;;461033;258;1162;-44
2021/05/27 01:57:55;;;;;;;;;;;21.50;43.40;;;;;;461076;258;1098;-45
2021/05/27 01:59:56;;;;;;;;;;;21.50;43.40;;;;;;461514;258;2213;-45
2021/05/27 02:01:57;;;;;;;;;;;21.50;43.40;;;;;;461197;258;1421;-45
2021/05/27 02:03:58;;;;;;;;;;;21.50;43.40;;;;;;461527;258;1085;-45
2021/05/27 02:06:00;;;;;;;;;;;21.60;43.30;;;;;;461263;258;1318;-45
2021/05/27 02:08:01;;;;;;;;;;;21.60;43.30;;;;;;461134;258;1124;-45
2021/05/27 02:10:02;;;;;;;;;;;21.60;43.20;;;;;;461163;258;1246;-45
2021/05/27 02:12:03;;;;;;;;;;;21.60;43.20;;;;;;461197;258;1407;-45
2021/05/27 02:14:05;;;;;;;;;;;21.60;43.20;;;;;;461618;258;1076;-45
2021/05/27 02:16:06;;;;;;;;;;;21.70;43.20;;;;;;461161;258;1420;-45
2021/05/27 02:18:07;;;;;;;;;;;21.70;43.10;;;;;;461126;258;1055;-45
2021/05/27 02:20:09;;;;;;;;;;;21.70;43.10;;;;;;461570;258;2160;-44
2021/05/27 02:22:10;;;;;;;;;;;21.70;43.10;;;;;;461054;258;1266;-45
2021/05/27 02:24:11;;;;;;;;;;;21.70;43.10;;;;;;461105;258;1133;-45
2021/05/27 02:26:12;;;;;;;;;;;21.80;43.10;;;;;;460996;258;1404;-45
2021/05/27 02:28:14;;;;;;;;;;;21.80;43.00;;;;;;461109;258;1184;-44
2021/05/27 02:30:15;;;;;;;;;;;21.80;43.10;;;;;;461159;258;1141;-45
2021/05/27 02:32:16;;;;;;;;;;;21.80;43.00;;;;;;461162;258;1214;-45
2021/05/27 02:34:18;;;;;;;;;;;21.80;43.00;;;;;;461166;258;1153;-45
2021/05/27 02:36:19;;;;;;;;;;;21.80;42.90;;;;;;461132;258;1212;-45
2021/05/27 02:38:20;;;;;;;;;;;21.90;43.00;;;;;;461519;258;1122;-45
2021/05/27 02:40:21;;;;;;;;;;;21.80;43.00;;;;;;461112;258;2200;-44
2021/05/27 02:42:23;;;;;;;;;;;21.80;42.90;;;;;;461093;258;1127;-44
2021/05/27 02:44:25;;;;;;;;;;;21.80;43.00;;;;;;461188;258;1192;-45
2021/05/27 02:46:27;;;;;;;;;;;21.90;42.90;;;;;;461316;258;1077;-45
2021/05/27 02:48:28;;;;;;;;;;;21.50;43.60;;;;;;461537;258;1177;-44
2021/05/27 02:50:29;;;;;;;;;;;20.90;44.80;;;;;;461143;258;1090;-44
2021/05/27 02:52:31;;;;;;;;;;;20.50;45.90;;;;;;461455;258;1109;-44
2021/05/27 02:54:32;;;;;;;;;;;20.20;46.70;;;;;;461440;258;1262;-44
2021/05/27 02:56:33;;;;;;;;;;;19.90;47.40;;;;;;461446;258;1251;-44
2021/05/27 02:58:35;;;;;;;;;;;19.70;47.90;;;;;;461276;258;1105;-44
2021/05/27 03:00:36;;;;;;;;;;;19.60;48.20;;;;;;461045;258;2211;-44
2021/05/27 03:02:37;;;;;;;;;;;19.50;48.50;;;;;;461064;258;1274;-44
2021/05/27 03:04:39;;;;;;;;;;;19.40;48.70;;;;;;461166;258;1107;-44
2021/05/27 03:06:40;;;;;;;;;;;19.30;48.80;;;;;;461218;258;1259;-44
2021/05/27 03:08:41;;;;;;;;;;;19.30;48.90;;;;;;461309;258;1181;-44
2021/05/27 03:10:42;;;;;;;;;;;19.30;49.10;;;;;;461339;258;1272;-44
2021/05/27 03:12:44;;;;;;;;;;;19.20;49.20;;;;;;461496;258;1224;-44
2021/05/27 03:14:45;;;;;;;;;;;19.20;49.30;;;;;;461535;258;1070;-44
2021/05/27 03:16:46;;;;;;;;;;;19.10;49.50;;;;;;461037;258;1114;-44
2021/05/27 03:18:49;;;;;;;;;;;19.10;49.60;;;;;;461082;258;1218;-44
2021/05/27 03:20:50;;;;;;;;;;;19.00;49.60;;;;;;461277;258;2156;-45
2021/05/27 03:22:51;;;;;;;;;;;19.00;49.70;;;;;;461426;258;1156;-44
2021/05/27 03:24:53;;;;;;;;;;;19.00;49.80;;;;;;461477;258;1148;-44
2021/05/27 03:26:54;;;;;;;;;;;18.90;50.00;;;;;;461334;258;1048;-44
2021/05/27 03:28:55;;;;;;;;;;;18.90;49.90;;;;;;461150;258;1183;-44
2021/05/27 03:30:57;;;;;;;;;;;18.90;49.90;;;;;;461250;258;989;-44
2021/05/27 03:32:58;;;;;;;;;;;18.80;50.00;;;;;;461149;258;1183;-44
2021/05/27 03:34:59;;;;;;;;;;;18.80;50.10;;;;;;461216;258;1074;-44
2021/05/27 03:37:00;;;;;;;;;;;18.70;50.20;;;;;;461349;258;1095;-44
2021/05/27 03:39:02;;;;;;;;;;;18.80;50.20;;;;;;461419;258;1074;-44
2021/05/27 03:41:03;;;;;;;;;;;18.70;50.20;;;;;;461104;258;2228;-44
2021/05/27 03:43:04;;;;;;;;;;;18.70;50.20;;;;;;461355;258;1171;-44
2021/05/27 03:45:06;;;;;;;;;;;18.70;50.30;;;;;;461167;258;1092;-44
2021/05/27 03:47:07;;;;;;;;;;;18.70;50.30;;;;;;460983;258;1150;-44
2021/05/27 03:49:08;;;;;;;;;;;18.70;50.30;;;;;;461528;258;1105;-44
2021/05/27 03:51:10;;;;;;;;;;;18.70;50.40;;;;;;461057;258;1289;-44
2021/05/27 03:53:11;;;;;;;;;;;18.70;50.30;;;;;;461360;258;1065;-44
2021/05/27 03:55:12;;;;;;;;;;;18.70;50.30;;;;;;461497;258;1135;-44
2021/05/27 03:57:13;;;;;;;;;;;18.60;50.40;;;;;;461059;258;1328;-44
2021/05/27 04:01:34;;;;;;;;;;;18.60;50.60;;;;;;461331;258;2155;-44
2021/05/27 04:08:15;;;;;;;;;;;18.50;50.80;;;;;;461153;258;1766;-45
2021/05/27 04:10:17;;;;;;;;;;;18.50;50.70;;;;;;461003;258;1501;-44
2021/05/27 04:14:37;;;;;;;;;;;18.40;50.70;;;;;;461061;258;1072;-45
2021/05/27 04:16:38;;;;;;;;;;;18.40;50.70;;;;;;461027;258;1232;-44
2021/05/27 04:18:39;;;;;;;;;;;18.40;50.70;;;;;;461123;258;1104;-45
2021/05/27 04:20:41;;;;;;;;;;;18.40;50.80;;;;;;460865;258;2200;-44
2021/05/27 04:22:42;;;;;;;;;;;18.40;50.80;;;;;;461046;258;1175;-44
2021/05/27 04:24:43;;;;;;;;;;;18.80;49.90;;;;;;461451;258;1090;-44
2021/05/27 04:26:45;;;;;;;;;;;19.30;48.70;;;;;;461149;258;1282;-44
2021/05/27 04:28:46;;;;;;;;;;;19.60;47.70;;;;;;461414;258;1061;-44
2021/05/27 04:33:07;;;;;;;;;;;20.10;46.60;;;;;;461398;258;1112;-44
2021/05/27 04:35:08;;;;;;;;;;;20.30;46.10;;;;;;460973;258;2084;-45
2021/05/27 04:37:09;;;;;;;;;;;20.30;45.80;;;;;;460947;258;1343;-45
2021/05/27 04:39:10;;;;;;;;;;;20.40;45.70;;;;;;460902;258;1102;-45
2021/05/27 04:41:11;;;;;;;;;;;20.50;45.50;;;;;;460958;258;2204;-45
2021/05/27 04:43:13;;;;;;;;;;;20.60;45.40;;;;;;461014;258;1214;-44
2021/05/27 04:45:14;;;;;;;;;;;20.60;45.20;;;;;;461086;258;1106;-45
2021/05/27 04:47:16;;;;;;;;;;;20.70;45.10;;;;;;461025;258;1352;-45
2021/05/27 04:49:17;;;;;;;;;;;20.70;45.00;;;;;;460997;258;1112;-45
2021/05/27 04:51:18;;;;;;;;;;;20.80;45.00;;;;;;461221;258;1111;-44
2021/05/27 04:53:19;;;;;;;;;;;20.80;44.90;;;;;;461028;258;1073;-44
2021/05/27 04:55:21;;;;;;;;;;;20.80;44.70;;;;;;461174;258;1181;-45
2021/05/27 04:57:22;;;;;;;;;;;20.90;44.70;;;;;;460947;258;1368;-45
2021/05/27 04:59:23;;;;;;;;;;;20.90;44.60;;;;;;461288;258;1049;-45
2021/05/27 05:01:26;;;;;;;;;;;21.00;44.60;;;;;;460900;258;2208;-45
2021/05/27 05:03:26;;;;;;;;;;;21.00;44.40;;;;;;461281;258;2054;-45
2021/05/27 05:05:27;;;;;;;;;;;21.00;44.40;;;;;;461142;258;1156;-44
2021/05/27 05:07:29;;;;;;;;;;;21.00;44.30;;;;;;461000;258;1145;-45
2021/05/27 05:09:30;;;;;;;;;;;21.10;44.30;;;;;;461001;258;1116;-44
2021/05/27 05:11:31;;;;;;;;;;;21.10;44.20;;;;;;460907;258;1306;-45
2021/05/27 05:13:32;;;;;;;;;;;21.10;44.10;;;;;;461113;258;1130;-45
2021/05/27 05:15:34;;;;;;;;;;;21.20;44.10;;;;;;461082;258;1145;-45
2021/05/27 05:17:35;;;;;;;;;;;21.20;44.10;;;;;;460934;258;1095;-45
2021/05/27 05:19:36;;;;;;;;;;;21.20;44.00;;;;;;461003;258;1171;-44
2021/05/27 05:21:38;;;;;;;;;;;21.20;44.00;;;;;;460946;258;2153;-45
2021/05/27 05:23:39;;;;;;;;;;;21.20;43.90;;;;;;460856;258;1185;-45
2021/05/27 05:25:40;;;;;;;;;;;21.20;43.90;;;;;;460998;258;2054;-44
2021/05/27 05:27:41;;;;;;;;;;;21.30;43.90;;;;;;460833;258;1296;-44
2021/05/27 05:29:43;;;;;;;;;;;21.30;43.90;;;;;;460907;258;1089;-44
2021/05/27 05:31:44;;;;;;;;;;;21.30;43.80;;;;;;460835;258;1219;-45
2021/05/27 05:33:46;;;;;;;;;;;21.30;43.80;;;;;;460903;258;1117;-44
2021/05/27 05:35:47;;;;;;;;;;;21.30;43.70;;;;;;460925;258;1175;-45
2021/05/27 05:37:48;;;;;;;;;;;21.40;43.80;;;;;;460869;258;1064;-45
2021/05/27 05:39:49;;;;;;;;;;;21.40;43.70;;;;;;461124;258;1121;-45
2021/05/27 05:41:51;;;;;;;;;;;21.40;43.60;;;;;;460712;258;2222;-45
2021/05/27 05:43:52;;;;;;;;;;;21.40;43.60;;;;;;460802;258;1117;-45
2021/05/27 05:45:53;;;;;;;;;;;21.50;43.60;;;;;;460886;258;1169;-44
2021/05/27 05:47:55;;;;;;;;;;;21.50;43.60;;;;;;460797;258;1129;-45
2021/05/27 05:49:56;;;;;;;;;;;21.50;43.60;;;;;;460846;258;1186;-45
2021/05/27 05:51:57;;;;;;;;;;;21.50;43.50;;;;;;460774;258;1481;-45
2021/05/27 05:53:58;;;;;;;;;;;21.50;43.50;;;;;;460778;258;1235;-44
2021/05/27 05:56:00;;;;;;;;;;;21.50;43.50;;;;;;460862;258;1245;-45
2021/05/27 05:58:02;;;;;;;;;;;21.50;43.50;;;;;;460728;258;1372;-44
2021/05/27 06:00:02;;;;;;;;;;;21.50;43.40;;;;;;460679;258;1381;-44
2021/05/27 06:02:04;;;;;;;;;;;21.60;43.40;;;;;;460790;258;2208;-45
2021/05/27 06:04:05;;;;;;;;;;;21.60;43.40;;;;;;460940;258;1142;-44
2021/05/27 06:06:06;;;;;;;;;;;21.60;43.40;;;;;;460639;258;1148;-45
2021/05/27 06:08:08;;;;;;;;;;;21.60;43.40;;;;;;460855;258;1069;-45
2021/05/27 06:10:09;;;;;;;;;;;21.60;43.40;;;;;;460763;258;1089;-45
2021/05/27 06:12:10;;;;;;;;;;;21.60;43.30;;;;;;460650;258;1270;-45
2021/05/27 06:14:12;;;;;;;;;;;21.70;43.40;;;;;;460842;258;1279;-44
2021/05/27 06:16:13;;;;;;;;;;;21.70;43.30;;;;;;460698;258;1409;-45
2021/05/27 06:18:16;;;;;;;;;;;21.70;43.30;;;;;;460830;258;1100;-44
2021/05/27 06:20:17;;;;;;;;;;;21.70;43.30;;;;;;460824;258;1234;-44
2021/05/27 06:22:18;;;;;;;;;;;21.70;43.20;;;;;;460734;258;2204;-45
2021/05/27 06:24:20;;;;;;;;;;;21.70;43.20;;;;;;460748;258;1152;-45
2021/05/27 06:26:21;;;;;;;;;;;21.70;43.10;;;;;;460690;258;1513;-44
2021/05/27 06:28:22;;;;;;;;;;;21.70;43.10;;;;;;460677;258;1200;-45
2021/05/27 06:30:24;;;;;;;;;;;21.80;43.10;;;;;;460616;258;1144;-45
2021/05/27 06:32:25;;;;;;;;;;;21.80;43.20;;;;;;460487;258;2173;-45
2021/05/27 06:34:26;;;;;;;;;;;21.80;43.10;;;;;;460635;258;1304;-44
2021/05/27 06:36:28;;;;;;;;;;;21.80;43.10;;;;;;460641;259;1241;-45
2021/05/27 06:38:29;;;;;;;;;;;21.80;43.10;;;;;;460587;258;1120;-44
2021/05/27 06:40:30;;;;;;;;;;;21.90;43.10;;;;;;460537;258;1182;-45
2021/05/27 06:42:32;;;;;;;;;;;21.80;43.10;;;;;;460688;258;2160;-45
2021/05/27 06:44:33;;;;;;;;;;;21.80;43.00;;;;;;460599;258;1263;-44
2021/05/27 06:46:34;;;;;;;;;;;21.90;43.00;;;;;;460705;258;1508;-45
2021/05/27 06:48:36;;;;;;;;;;;21.90;43.00;;;;;;460591;258;1226;-45
2021/05/27 06:50:39;;;;;;;;;;;21.90;43.10;;;;;;460495;258;1492;-45
2021/05/27 06:52:38;;;;;;;;;;;21.90;42.90;;;;;;460437;258;2084;-45
2021/05/27 06:54:40;;;;;;;;;;;21.80;43.10;;;;;;460879;258;1216;-44
2021/05/27 06:56:41;;;;;;;;;;;21.30;44.10;;;;;;460461;258;1083;-44
2021/05/27 06:58:42;;;;;;;;;;;20.70;45.40;;;;;;460450;258;1226;-44
2021/05/27 07:00:43;;;;;;;;;;;20.40;46.40;;;;;;460474;258;1134;-44
2021/05/27 07:02:45;;;;;;;;;;;20.10;47.10;;;;;;460454;258;2203;-44
2021/05/27 07:04:46;;;;;;;;;;;19.80;47.70;;;;;;460521;258;1213;-45
2021/05/27 07:06:47;;;;;;;;;;;19.70;48.10;;;;;;460363;258;1201;-45
2021/05/27 07:08:49;;;;;;;;;;;19.60;48.30;;;;;;460416;258;1105;-44
2021/05/27 07:10:50;;;;;;;;;;;19.60;48.60;;;;;;460499;258;1126;-44
2021/05/27 07:12:51;;;;;;;;;;;19.50;48.50;;;;;;460432;258;1193;-44
2021/05/27 07:14:53;;;;;;;;;;;19.50;48.70;;;;;;460575;258;1278;-44
2021/05/27 07:16:54;;;;;;;;;;;19.40;48.90;;;;;;460404;258;1304;-45
2021/05/27 07:18:55;;;;;;;;;;;19.30;49.10;;;;;;460610;258;1119;-44
2021/05/27 07:20:57;;;;;;;;;;;19.30;49.20;;;;;;460472;258;1446;-44
2021/05/27 07:22:58;;;;;;;;;;;19.20;49.40;;;;;;460660;258;2220;-45
2021/05/27 07:24:59;;;;;;;;;;;19.10;49.50;;;;;;460613;258;1200;-44
2021/05/27 07:27:01;;;;;;;;;;;19.10;49.60;;;;;;460570;258;1185;-44
2021/05/27 07:29:02;;;;;;;;;;;19.10;49.70;;;;;;460237;258;1351;-44
2021/05/27 07:31:05;;;;;;;;;;;19.10;49.70;;;;;;460226;258;1338;-44
2021/05/27 07:33:05;;;;;;;;;;;19.00;49.80;;;;;;460121;258;1860;-44
2021/05/27 07:35:06;;;;;;;;;;;19.00;49.80;;;;;;460304;258;1141;-44
2021/05/27 07:37:07;;;;;;;;;;;19.00;49.90;;;;;;460391;258;1224;-44
2021/05/27 07:39:08;;;;;;;;;;;19.00;49.90;;;;;;460378;258;1223;-45
2021/05/27 07:41:10;;;;;;;;;;;18.90;49.90;;;;;;460471;258;2153;-44
2021/05/27 07:43:12;;;;;;;;;;;18.90;50.00;;;;;;460431;258;1168;-44
2021/05/27 07:45:12;;;;;;;;;;;18.90;50.10;;;;;;460374;258;2224;-44
2021/05/27 07:47:13;;;;;;;;;;;18.90;50.10;;;;;;460316;258;1197;-44
2021/05/27 07:49:15;;;;;;;;;;;18.80;50.20;;;;;;460418;258;1317;-44
2021/05/27 07:51:16;;;;;;;;;;;18.80;50.20;;;;;;460413;258;1311;-44
2021/05/27 07:53:20;;;;;;;;;;;18.80;50.30;;;;;;460129;258;1264;-44
2021/05/27 07:55:19;;;;;;;;;;;18.70;50.40;;;;;;460065;258;2064;-45
2021/05/27 07:57:20;;;;;;;;;;;18.70;50.40;;;;;;460267;258;1473;-44
2021/05/27 07:59:21;;;;;;;;;;;18.70;50.50;;;;;;460250;258;1228;-44
2021/05/27 08:01:22;;;;;;;;;;;18.60;50.50;;;;;;460381;258;2152;-44
2021/05/27 08:03:24;;;;;;;;;;;18.60;50.60;;;;;;460931;258;1328;-44
2021/05/27 08:05:27;;;;;;;;;;;18.60;50.70;;;;;;460691;258;1136;-44
2021/05/27 08:07:26;;;;;;;;;;;18.60;50.60;;;;;;460251;258;1414;-44
2021/05/27 08:09:28;;;;;;;;;;;18.60;50.60;;;;;;460180;258;1120;-44
2021/05/27 08:11:29;;;;;;;;;;;18.60;50.60;;;;;;459752;258;1439;-44
2021/05/27 08:13:30;;;;;;;;;;;18.60;50.60;;;;;;460724;258;1100;-43
2021/05/27 08:15:31;;;;;;;;;;;18.60;50.70;;;;;;460407;258;1387;-44
2021/05/27 08:17:33;;;;;;;;;;;18.60;50.70;;;;;;461089;258;1225;-44
2021/05/27 08:19:35;;;;;;;;;;;18.50;50.70;;;;;;461142;258;915;-44
2021/05/27 08:21:35;;;;;;;;;;;18.50;50.70;;;;;;460852;258;2192;-44
2021/05/27 08:23:36;;;;;;;;;;;18.50;50.70;;;;;;460403;258;1164;-44
2021/05/27 08:25:38;;;;;;;;;;;18.50;50.70;;;;;;460257;258;1229;-44
2021/05/27 08:27:39;;;;;;;;;;;18.50;50.80;;;;;;460596;258;1182;-44
2021/05/27 08:29:40;;;;;;;;;;;18.50;50.80;;;;;;461157;258;1187;-44
2021/05/27 08:31:42;;;;;;;;;;;18.40;50.70;;;;;;460705;258;1287;-44
2021/05/27 08:33:44;;;;;;;;;;;18.40;50.80;;;;;;460539;258;1080;-44
2021/05/27 08:35:44;;;;;;;;;;;18.40;50.80;;;;;;460428;258;2216;-44
2021/05/27 08:37:45;;;;;;;;;;;18.40;50.80;;;;;;460516;258;1618;-44
2021/05/27 08:39:48;;;;;;;;;;;18.40;50.80;;;;;;460324;258;1154;-44
2021/05/27 08:41:49;;;;;;;;;;;18.40;50.90;;;;;;460493;258;2200;-44
2021/05/27 08:43:50;;;;;;;;;;;18.40;50.90;;;;;;460804;258;1132;-44
2021/05/27 08:45:51;;;;;;;;;;;18.40;50.80;;;;;;460474;258;1223;-44
2021/05/27 08:47:53;;;;;;;;;;;18.40;50.60;;;;;;460678;258;1226;-45
2021/05/27 08:49:54;;;;;;;;;;;18.50;50.50;;;;;;460324;258;1155;-44
2021/05/27 08:51:55;;;;;;;;;;;18.50;50.40;;;;;;460169;258;1258;-44
2021/05/27 08:53:56;;;;;;;;;;;18.80;49.90;;;;;;460511;258;1283;-44
2021/05/27 08:55:58;;;;;;;;;;;19.20;48.70;;;;;;460567;258;1204;-44
2021/05/27 08:57:59;;;;;;;;;;;19.60;47.80;;;;;;460686;258;1217;-44
2021/05/27 09:00:00;;;;;;;;;;;19.80;47.20;;;;;;460387;258;1204;-44
2021/05/27 09:02:02;;;;;;;;;;;20.00;46.80;;;;;;460345;258;2193;-44
2021/05/27 09:04:05;;;;;;;;;;;20.10;46.40;;;;;;460499;258;1267;-44
2021/05/27 09:06:04;;;;;;;;;;;20.30;46.10;;;;;;460304;258;2364;-44
2021/05/27 09:08:05;;;;;;;;;;;20.40;45.80;;;;;;460463;258;1130;-44
2021/05/27 09:10:07;;;;;;;;;;;20.50;45.60;;;;;;460367;258;1173;-45
2021/05/27 09:12:08;;;;;;;;;;;20.50;45.50;;;;;;460395;258;1183;-45
2021/05/27 09:14:10;;;;;;;;;;;20.60;45.30;;;;;;460468;258;1239;-45
2021/05/27 09:16:11;;;;;;;;;;;20.60;45.20;;;;;;460224;258;1350;-45
2021/05/27 09:18:12;;;;;;;;;;;20.70;45.00;;;;;;459747;258;1342;-44
2021/05/27 09:20:14;;;;;;;;;;;20.80;44.90;;;;;;460174;258;1285;-44
2021/05/27 09:22:15;;;;;;;;;;;20.80;44.80;;;;;;460304;258;2170;-44
2021/05/27 09:24:16;;;;;;;;;;;20.90;44.70;;;;;;460371;258;1182;-45
2021/05/27 09:26:17;;;;;;;;;;;20.90;44.60;;;;;;460261;258;1531;-45
2021/05/27 09:28:19;;;;;;;;;;;20.90;44.50;;;;;;460328;258;1150;-44
2021/05/27 09:30:20;;;;;;;;;;;20.90;44.40;;;;;;460479;258;1207;-44
2021/05/27 09:32:21;;;;;;;;;;;21.00;44.40;;;;;;460423;258;1352;-45
2021/05/27 09:34:22;;;;;;;;;;;21.00;44.30;;;;;;460437;258;1087;-45
2021/05/27 09:36:24;;;;;;;;;;;21.10;44.30;;;;;;460581;258;1276;-44
2021/05/27 09:38:25;;;;;;;;;;;21.10;44.20;;;;;;460743;258;1304;-44
2021/05/27 09:40:26;;;;;;;;;;;21.10;44.20;;;;;;460434;258;1374;-45
2021/05/27 09:42:27;;;;;;;;;;;21.10;44.10;;;;;;461143;258;2211;-45
2021/05/27 09:44:29;;;;;;;;;;;21.20;44.10;;;;;;460642;258;1151;-45
2021/05/27 09:46:31;;;;;;;;;;;21.20;44.10;;;;;;460496;258;1291;-45
2021/05/27 09:48:32;;;;;;;;;;;21.20;44.00;;;;;;460698;258;1307;-45
2021/05/27 09:50:33;;;;;;;;;;;21.20;44.00;;;;;;460595;258;1284;-45
2021/05/27 09:52:35;;;;;;;;;;;21.20;44.00;;;;;;460907;258;1042;-45
2021/05/27 09:54:36;;;;;;;;;;;21.30;43.90;;;;;;460389;258;1127;-44
2021/05/27 09:56:37;;;;;;;;;;;21.30;43.90;;;;;;460133;258;1305;-44
2021/05/27 09:58:39;;;;;;;;;;;21.30;43.90;;;;;;461040;258;1220;-45
2021/05/27 10:00:40;;;;;;;;;;;21.30;43.80;;;;;;460492;258;1337;-45
2021/05/27 10:02:41;;;;;;;;;;;21.30;43.80;;;;;;460433;258;2212;-45
2021/05/27 10:04:42;;;;;;;;;;;21.40;43.80;;;;;;460482;258;1176;-45
2021/05/27 10:06:44;;;;;;;;;;;21.40;43.80;;;;;;460279;258;1518;-45
2021/05/27 10:08:45;;;;;;;;;;;21.40;43.80;;;;;;460454;258;1164;-45
2021/05/27 10:10:47;;;;;;;;;;;21.40;43.70;;;;;;460603;258;1291;-45
2021/05/27 10:12:48;;;;;;;;;;;21.40;43.70;;;;;;460704;258;1289;-45
2021/05/27 10:14:49;;;;;;;;;;;21.40;43.70;;;;;;460537;258;1231;-45
2021/05/27 10:16:50;;;;;;;;;;;21.50;43.70;;;;;;460432;258;1315;-45
2021/05/27 10:18:52;;;;;;;;;;;21.50;43.70;;;;;;460419;258;1096;-45
2021/05/27 10:20:53;;;;;;;;;;;21.50;43.70;;;;;;460454;258;1129;-45
2021/05/27 10:22:56;;;;;;;;;;;21.50;43.70;;;;;;460438;258;2208;-45
2021/05/27 10:24:56;;;;;;;;;;;21.50;43.60;;;;;;460362;258;2067;-45
2021/05/27 10:26:57;;;;;;;;;;;21.50;43.50;;;;;;460727;258;1362;-45
2021/05/27 10:29:00;;;;;;;;;;;21.50;43.50;;;;;;460386;258;1145;-45
2021/05/27 10:31:00;;;;;;;;;;;21.50;43.50;;;;;;460361;258;2162;-45
2021/05/27 10:33:03;;;;;;;;;;;21.50;43.50;;;;;;460582;258;1134;-45
2021/05/27 10:35:02;;;;;;;;;;;21.60;43.50;;;;;;460417;258;2164;-44
2021/05/27 10:37:06;;;;;;;;;;;21.60;43.50;;;;;;460385;258;1283;-45
2021/05/27 10:39:06;;;;;;;;;;;21.60;43.40;;;;;;460338;258;2281;-45
2021/05/27 10:41:07;;;;;;;;;;;21.60;43.40;;;;;;460322;258;1352;-45
2021/05/27 10:43:10;;;;;;;;;;;21.60;43.40;;;;;;460323;258;2216;-45
2021/05/27 10:45:10;;;;;;;;;;;21.60;43.40;;;;;;460764;258;2214;-44
2021/05/27 10:47:13;;;;;;;;;;;21.60;43.40;;;;;;460388;258;1367;-45
2021/05/27 10:49:13;;;;;;;;;;;21.70;43.40;;;;;;460497;258;2005;-45
2021/05/27 10:51:19;;;;;;;;;;;21.60;43.40;;;;;;460510;257;1239;-45
2021/05/27 10:53:18;;;;;;;;;;;21.70;43.40;;;;;;460399;258;2321;-45
2021/05/27 10:55:19;;;;;;;;;;;21.80;43.20;;;;;;460413;258;1336;-45
2021/05/27 10:57:21;;;;;;;;;;;21.80;43.10;;;;;;460399;258;1320;-45
2021/05/27 10:59:26;;;;;;;;;;;21.40;43.80;;;;;;460423;258;1493;-45
2021/05/27 11:01:23;;;;;;;;;;;21.10;44.60;;;;;;460223;258;2283;-45
2021/05/27 11:03:24;;;;;;;;;;;20.90;45.20;;;;;;460513;258;2192;-45
2021/05/27 11:05:26;;;;;;;;;;;20.70;45.60;;;;;;460647;258;1150;-44
2021/05/27 11:07:28;;;;;;;;;;;20.60;45.90;;;;;;460485;258;1228;-44
2021/05/27 11:09:28;;;;;;;;;;;20.40;46.20;;;;;;460509;258;2051;-45
2021/05/27 11:11:29;;;;;;;;;;;20.40;46.40;;;;;;460345;258;1275;-45
2021/05/27 11:13:31;;;;;;;;;;;20.30;46.50;;;;;;460673;258;1159;-44
2021/05/27 11:15:32;;;;;;;;;;;20.30;46.70;;;;;;460518;258;1170;-44
2021/05/27 11:17:34;;;;;;;;;;;20.20;46.70;;;;;;460392;258;1340;-45
2021/05/27 11:19:35;;;;;;;;;;;20.20;46.70;;;;;;460459;258;1177;-45
2021/05/27 11:21:39;;;;;;;;;;;20.20;46.80;;;;;;460439;258;1668;-45
2021/05/27 11:23:38;;;;;;;;;;;20.30;46.70;;;;;;460381;258;2261;-44
2021/05/27 11:25:40;;;;;;;;;;;20.30;46.70;;;;;;460954;258;1327;-44
2021/05/27 11:27:40;;;;;;;;;;;20.20;46.70;;;;;;460546;258;2153;-44
2021/05/27 11:29:41;;;;;;;;;;;20.20;46.70;;;;;;460480;258;1145;-44
2021/05/27 11:31:43;;;;;;;;;;;20.20;46.70;;;;;;460279;258;1287;-44
2021/05/27 11:33:44;;;;;;;;;;;20.20;46.80;;;;;;460431;258;1244;-45
2021/05/27 11:35:45;;;;;;;;;;;20.20;46.80;;;;;;460447;258;1356;-45
2021/05/27 11:37:47;;;;;;;;;;;20.20;46.90;;;;;;460704;258;1154;-44
2021/05/27 11:39:48;;;;;;;;;;;20.10;46.90;;;;;;460412;258;1128;-45
2021/05/27 11:41:49;;;;;;;;;;;20.10;47.00;;;;;;460293;258;1182;-44
2021/05/27 11:43:51;;;;;;;;;;;20.10;47.10;;;;;;460454;258;2161;-45
2021/05/27 11:45:52;;;;;;;;;;;20.10;47.20;;;;;;460439;258;1229;-44
2021/05/27 11:47:53;;;;;;;;;;;20.00;47.30;;;;;;460512;258;1212;-44
2021/05/27 11:49:55;;;;;;;;;;;20.00;47.30;;;;;;460459;258;1117;-45
2021/05/27 11:51:56;;;;;;;;;;;20.00;47.30;;;;;;460422;258;1158;-44
2021/05/27 11:53:58;;;;;;;;;;;19.90;47.40;;;;;;460498;258;1242;-44
2021/05/27 11:55:58;;;;;;;;;;;19.80;47.60;;;;;;460449;258;2072;-44
2021/05/27 11:58:00;;;;;;;;;;;19.70;47.80;;;;;;460638;258;1098;-44
2021/05/27 12:00:01;;;;;;;;;;;19.60;48.20;;;;;;460667;258;1231;-44
2021/05/27 12:02:03;;;;;;;;;;;19.50;48.40;;;;;;460536;258;1192;-44
2021/05/27 12:04:03;;;;;;;;;;;19.40;48.60;;;;;;460481;258;2246;-44
2021/05/27 12:06:05;;;;;;;;;;;19.30;48.80;;;;;;460422;258;1115;-44
2021/05/27 12:08:06;;;;;;;;;;;19.30;49.00;;;;;;460509;258;1559;-44